sensor_id;sensor_type;location;lat;lon;timestamp;temperature;humidity
52273;DHT22;38227;50.942;4.016;2022-10-16T00:00:07;14.80;99.90
52273;DHT22;38227;50.942;4.016;2022-10-16T00:02:41;14.70;99.90
52273;DHT22;38227;50.942;4.016;2022-10-16T00:05:09;14.80;99.90
52273;DHT22;38227;50.942;4.016;2022-10-16T00:07:42;14.80;99.90
52273;DHT22;38227;50.942;4.016;2022-10-16T00:10:10;14.70;99.90
52273;DHT22;38227;50.942;4.016;2022-10-16T00:12:38;14.70;99.90
52273;DHT22;38227;50.942;4.016;2022-10-16T00:15:08;14.70;99.90
52273;DHT22;38227;50.942;4.016;2022-10-16T00:17:37;14.70;99.90
52273;DHT22;38227;50.942;4.016;2022-10-16T00:20:05;14.70;99.90
52273;DHT22;38227;50.942;4.016;2022-10-16T00:22:34;14.70;99.90
52273;DHT22;38227;50.942;4.016;2022-10-16T00:25:07;14.70;99.90
52273;DHT22;38227;50.942;4.016;2022-10-16T00:27:43;14.70;99.90
52273;DHT22;38227;50.942;4.016;2022-10-16T00:30:15;14.70;99.90
52273;DHT22;38227;50.942;4.016;2022-10-16T00:32:43;14.70;99.90
52273;DHT22;38227;50.942;4.016;2022-10-16T00:35:16;14.60;99.90
52273;DHT22;38227;50.942;4.016;2022-10-16T00:37:44;14.60;99.90
52273;DHT22;38227;50.942;4.016;2022-10-16T00:40:12;14.60;99.90
52273;DHT22;38227;50.942;4.016;2022-10-16T00:42:43;14.60;99.90
52273;DHT22;38227;50.942;4.016;2022-10-16T00:45:16;14.60;99.90
52273;DHT22;38227;50.942;4.016;2022-10-16T00:47:47;14.60;99.90
52273;DHT22;38227;50.942;4.016;2022-10-16T00:53:17;14.60;99.90
52273;DHT22;38227;50.942;4.016;2022-10-16T00:55:51;14.60;99.90
52273;DHT22;38227;50.942;4.016;2022-10-16T00:58:20;14.50;99.90
52273;DHT22;38227;50.942;4.016;2022-10-16T01:01:01;14.50;99.90
52273;DHT22;38227;50.942;4.016;2022-10-16T01:03:33;14.40;99.90
52273;DHT22;38227;50.942;4.016;2022-10-16T01:13:10;14.50;99.90
52273;DHT22;38227;50.942;4.016;2022-10-16T01:15:37;14.40;99.90
52273;DHT22;38227;50.942;4.016;2022-10-16T01:18:44;14.40;99.90
52273;DHT22;38227;50.942;4.016;2022-10-16T01:21:22;14.50;99.90
52273;DHT22;38227;50.942;4.016;2022-10-16T01:24:19;14.40;99.90
52273;DHT22;38227;50.942;4.016;2022-10-16T01:27:25;14.50;99.90
52273;DHT22;38227;50.942;4.016;2022-10-16T01:32:53;14.40;99.90
52273;DHT22;38227;50.942;4.016;2022-10-16T01:35:52;14.40;99.90
52273;DHT22;38227;50.942;4.016;2022-10-16T01:38:43;14.30;99.90
52273;DHT22;38227;50.942;4.016;2022-10-16T01:41:32;14.40;99.90
52273;DHT22;38227;50.942;4.016;2022-10-16T01:44:08;14.30;99.90
52273;DHT22;38227;50.942;4.016;2022-10-16T01:46:42;14.30;99.90
52273;DHT22;38227;50.942;4.016;2022-10-16T01:49:12;14.40;99.90
52273;DHT22;38227;50.942;4.016;2022-10-16T01:51:45;14.40;99.90
52273;DHT22;38227;50.942;4.016;2022-10-16T01:54:20;14.40;99.90
52273;DHT22;38227;50.942;4.016;2022-10-16T01:56:51;14.40;99.90
52273;DHT22;38227;50.942;4.016;2022-10-16T01:59:24;14.30;99.90
52273;DHT22;38227;50.942;4.016;2022-10-16T02:02:00;14.30;99.90
52273;DHT22;38227;50.942;4.016;2022-10-16T02:05:02;14.30;99.90
52273;DHT22;38227;50.942;4.016;2022-10-16T02:07:34;14.30;99.90
52273;DHT22;38227;50.942;4.016;2022-10-16T02:10:06;14.20;99.90
52273;DHT22;38227;50.942;4.016;2022-10-16T02:12:42;14.30;99.90
52273;DHT22;38227;50.942;4.016;2022-10-16T02:15:16;14.30;99.90
52273;DHT22;38227;50.942;4.016;2022-10-16T02:17:48;14.30;99.90
52273;DHT22;38227;50.942;4.016;2022-10-16T02:20:17;14.40;99.90
52273;DHT22;38227;50.942;4.016;2022-10-16T02:22:48;14.30;99.90
52273;DHT22;38227;50.942;4.016;2022-10-16T02:25:26;14.20;99.90
52273;DHT22;38227;50.942;4.016;2022-10-16T02:28:25;14.20;99.90
52273;DHT22;38227;50.942;4.016;2022-10-16T02:31:02;14.30;99.90
52273;DHT22;38227;50.942;4.016;2022-10-16T02:33:32;14.20;99.90
52273;DHT22;38227;50.942;4.016;2022-10-16T02:36:02;14.20;99.90
52273;DHT22;38227;50.942;4.016;2022-10-16T02:38:33;14.20;99.90
52273;DHT22;38227;50.942;4.016;2022-10-16T02:41:03;14.20;99.90
52273;DHT22;38227;50.942;4.016;2022-10-16T02:43:35;14.20;99.90
52273;DHT22;38227;50.942;4.016;2022-10-16T02:46:13;14.20;99.90
52273;DHT22;38227;50.942;4.016;2022-10-16T02:48:41;14.20;99.90
52273;DHT22;38227;50.942;4.016;2022-10-16T02:51:13;14.20;99.90
52273;DHT22;38227;50.942;4.016;2022-10-16T02:53:41;14.20;99.90
52273;DHT22;38227;50.942;4.016;2022-10-16T02:56:10;14.20;99.90
52273;DHT22;38227;50.942;4.016;2022-10-16T02:58:41;14.10;99.90
52273;DHT22;38227;50.942;4.016;2022-10-16T03:01:09;14.10;99.90
52273;DHT22;38227;50.942;4.016;2022-10-16T03:03:42;14.10;99.90
52273;DHT22;38227;50.942;4.016;2022-10-16T03:06:10;14.20;99.90
52273;DHT22;38227;50.942;4.016;2022-10-16T03:08:39;14.20;99.90
52273;DHT22;38227;50.942;4.016;2022-10-16T03:11:11;14.20;99.90
52273;DHT22;38227;50.942;4.016;2022-10-16T03:13:38;14.10;99.90
52273;DHT22;38227;50.942;4.016;2022-10-16T03:16:10;14.10;99.90
52273;DHT22;38227;50.942;4.016;2022-10-16T03:18:43;14.10;99.90
52273;DHT22;38227;50.942;4.016;2022-10-16T03:21:10;14.10;99.90
52273;DHT22;38227;50.942;4.016;2022-10-16T03:23:48;14.10;99.90
52273;DHT22;38227;50.942;4.016;2022-10-16T03:26:16;14.10;99.90
52273;DHT22;38227;50.942;4.016;2022-10-16T03:28:49;14.10;99.90
52273;DHT22;38227;50.942;4.016;2022-10-16T03:31:17;14.10;99.90
52273;DHT22;38227;50.942;4.016;2022-10-16T03:33:56;14.10;99.90
52273;DHT22;38227;50.942;4.016;2022-10-16T03:36:27;14.10;99.90
52273;DHT22;38227;50.942;4.016;2022-10-16T03:38:55;14.10;99.90
52273;DHT22;38227;50.942;4.016;2022-10-16T03:41:27;14.20;99.90
52273;DHT22;38227;50.942;4.016;2022-10-16T03:43:55;14.20;99.90
52273;DHT22;38227;50.942;4.016;2022-10-16T03:46:33;14.20;99.90
52273;DHT22;38227;50.942;4.016;2022-10-16T03:49:02;14.30;99.90
52273;DHT22;38227;50.942;4.016;2022-10-16T03:51:30;14.20;99.90
52273;DHT22;38227;50.942;4.016;2022-10-16T03:53:59;14.20;99.90
52273;DHT22;38227;50.942;4.016;2022-10-16T03:56:31;14.20;99.90
52273;DHT22;38227;50.942;4.016;2022-10-16T03:58:59;14.20;99.90
52273;DHT22;38227;50.942;4.016;2022-10-16T04:01:30;14.20;99.90
52273;DHT22;38227;50.942;4.016;2022-10-16T04:03:58;14.30;99.90
52273;DHT22;38227;50.942;4.016;2022-10-16T04:06:30;14.20;99.90
52273;DHT22;38227;50.942;4.016;2022-10-16T04:09:02;14.20;99.90
52273;DHT22;38227;50.942;4.016;2022-10-16T04:11:40;14.20;99.90
52273;DHT22;38227;50.942;4.016;2022-10-16T04:14:09;14.20;99.90
52273;DHT22;38227;50.942;4.016;2022-10-16T04:16:40;14.30;99.90
52273;DHT22;38227;50.942;4.016;2022-10-16T04:19:09;14.30;99.90
52273;DHT22;38227;50.942;4.016;2022-10-16T04:21:42;14.30;99.90
52273;DHT22;38227;50.942;4.016;2022-10-16T04:24:10;14.20;99.90
52273;DHT22;38227;50.942;4.016;2022-10-16T04:26:48;14.30;99.90
52273;DHT22;38227;50.942;4.016;2022-10-16T04:29:16;14.30;99.90
52273;DHT22;38227;50.942;4.016;2022-10-16T04:31:48;14.20;99.90
52273;DHT22;38227;50.942;4.016;2022-10-16T04:34:22;14.20;99.90
52273;DHT22;38227;50.942;4.016;2022-10-16T04:36:54;14.30;99.90
52273;DHT22;38227;50.942;4.016;2022-10-16T04:39:22;14.30;99.90
52273;DHT22;38227;50.942;4.016;2022-10-16T04:41:54;14.20;99.90
52273;DHT22;38227;50.942;4.016;2022-10-16T04:44:22;14.20;99.90
52273;DHT22;38227;50.942;4.016;2022-10-16T04:46:53;14.10;99.90
52273;DHT22;38227;50.942;4.016;2022-10-16T04:49:25;14.20;99.90
52273;DHT22;38227;50.942;4.016;2022-10-16T04:51:56;14.20;99.90
52273;DHT22;38227;50.942;4.016;2022-10-16T04:54:26;14.10;99.90
52273;DHT22;38227;50.942;4.016;2022-10-16T04:56:58;14.00;99.90
52273;DHT22;38227;50.942;4.016;2022-10-16T04:59:26;14.00;99.90
52273;DHT22;38227;50.942;4.016;2022-10-16T05:02:04;13.90;99.90
52273;DHT22;38227;50.942;4.016;2022-10-16T05:04:32;13.90;99.90
52273;DHT22;38227;50.942;4.016;2022-10-16T05:07:11;13.80;99.90
52273;DHT22;38227;50.942;4.016;2022-10-16T05:09:39;13.90;99.90
52273;DHT22;38227;50.942;4.016;2022-10-16T05:12:11;13.90;99.90
52273;DHT22;38227;50.942;4.016;2022-10-16T05:14:39;13.90;99.90
52273;DHT22;38227;50.942;4.016;2022-10-16T05:17:11;13.90;99.90
52273;DHT22;38227;50.942;4.016;2022-10-16T05:19:39;13.90;99.90
52273;DHT22;38227;50.942;4.016;2022-10-16T05:22:11;13.90;99.90
52273;DHT22;38227;50.942;4.016;2022-10-16T05:24:39;13.90;99.90
52273;DHT22;38227;50.942;4.016;2022-10-16T05:27:11;13.80;99.90
52273;DHT22;38227;50.942;4.016;2022-10-16T05:29:45;13.80;99.90
52273;DHT22;38227;50.942;4.016;2022-10-16T05:32:14;13.80;99.90
52273;DHT22;38227;50.942;4.016;2022-10-16T05:34:45;13.90;99.90
52273;DHT22;38227;50.942;4.016;2022-10-16T05:37:23;13.90;99.90
52273;DHT22;38227;50.942;4.016;2022-10-16T05:39:51;13.90;99.90
52273;DHT22;38227;50.942;4.016;2022-10-16T05:42:19;13.90;99.90
52273;DHT22;38227;50.942;4.016;2022-10-16T05:44:57;13.90;99.90
52273;DHT22;38227;50.942;4.016;2022-10-16T05:47:24;14.00;99.90
52273;DHT22;38227;50.942;4.016;2022-10-16T05:49:56;13.90;99.90
52273;DHT22;38227;50.942;4.016;2022-10-16T05:52:24;14.00;99.90
52273;DHT22;38227;50.942;4.016;2022-10-16T05:55:02;14.00;99.90
52273;DHT22;38227;50.942;4.016;2022-10-16T05:57:31;14.00;99.90
52273;DHT22;38227;50.942;4.016;2022-10-16T06:00:09;14.10;99.90
52273;DHT22;38227;50.942;4.016;2022-10-16T06:02:38;14.20;99.90
52273;DHT22;38227;50.942;4.016;2022-10-16T06:05:10;14.20;99.90
52273;DHT22;38227;50.942;4.016;2022-10-16T06:07:38;14.40;99.90
52273;DHT22;38227;50.942;4.016;2022-10-16T06:10:08;14.30;99.90
52273;DHT22;38227;50.942;4.016;2022-10-16T06:12:36;14.30;99.90
52273;DHT22;38227;50.942;4.016;2022-10-16T06:15:09;14.30;99.90
52273;DHT22;38227;50.942;4.016;2022-10-16T06:17:37;14.30;99.90
52273;DHT22;38227;50.942;4.016;2022-10-16T06:20:07;14.20;99.90
52273;DHT22;38227;50.942;4.016;2022-10-16T06:22:35;14.30;99.90
52273;DHT22;38227;50.942;4.016;2022-10-16T06:25:05;14.30;99.90
52273;DHT22;38227;50.942;4.016;2022-10-16T06:27:34;14.40;99.90
52273;DHT22;38227;50.942;4.016;2022-10-16T06:30:07;14.40;99.90
52273;DHT22;38227;50.942;4.016;2022-10-16T06:32:44;14.30;99.90
52273;DHT22;38227;50.942;4.016;2022-10-16T06:35:20;14.40;99.90
52273;DHT22;38227;50.942;4.016;2022-10-16T06:37:53;14.40;99.90
52273;DHT22;38227;50.942;4.016;2022-10-16T06:40:41;14.40;99.90
52273;DHT22;38227;50.942;4.016;2022-10-16T06:43:11;14.40;99.90
52273;DHT22;38227;50.942;4.016;2022-10-16T06:45:56;14.40;99.90
52273;DHT22;38227;50.942;4.016;2022-10-16T06:48:27;14.40;99.90
52273;DHT22;38227;50.942;4.016;2022-10-16T06:51:05;14.40;99.90
52273;DHT22;38227;50.942;4.016;2022-10-16T06:53:36;14.30;99.90
52273;DHT22;38227;50.942;4.016;2022-10-16T06:56:18;14.30;99.90
52273;DHT22;38227;50.942;4.016;2022-10-16T06:58:59;14.30;99.90
52273;DHT22;38227;50.942;4.016;2022-10-16T07:01:35;14.30;99.90
52273;DHT22;38227;50.942;4.016;2022-10-16T07:04:07;14.40;99.90
52273;DHT22;38227;50.942;4.016;2022-10-16T07:06:35;14.30;99.90
52273;DHT22;38227;50.942;4.016;2022-10-16T07:09:08;14.40;99.90
52273;DHT22;38227;50.942;4.016;2022-10-16T07:11:38;14.60;99.90
52273;DHT22;38227;50.942;4.016;2022-10-16T07:14:17;14.70;99.90
52273;DHT22;38227;50.942;4.016;2022-10-16T07:16:45;15.20;99.90
52273;DHT22;38227;50.942;4.016;2022-10-16T07:19:15;16.20;99.90
52273;DHT22;38227;50.942;4.016;2022-10-16T07:21:43;17.50;99.90
52273;DHT22;38227;50.942;4.016;2022-10-16T07:24:16;18.40;99.90
52273;DHT22;38227;50.942;4.016;2022-10-16T07:26:44;19.10;99.90
52273;DHT22;38227;50.942;4.016;2022-10-16T07:29:18;19.70;99.90
52273;DHT22;38227;50.942;4.016;2022-10-16T07:31:47;20.40;99.90
52273;DHT22;38227;50.942;4.016;2022-10-16T07:34:16;20.80;99.90
52273;DHT22;38227;50.942;4.016;2022-10-16T07:36:48;21.10;99.90
52273;DHT22;38227;50.942;4.016;2022-10-16T07:39:16;21.70;99.90
52273;DHT22;38227;50.942;4.016;2022-10-16T07:41:48;21.80;99.90
52273;DHT22;38227;50.942;4.016;2022-10-16T07:44:16;21.50;99.90
52273;DHT22;38227;50.942;4.016;2022-10-16T07:46:48;21.50;99.90
52273;DHT22;38227;50.942;4.016;2022-10-16T07:49:16;21.70;99.90
52273;DHT22;38227;50.942;4.016;2022-10-16T07:51:48;22.00;99.90
52273;DHT22;38227;50.942;4.016;2022-10-16T07:54:16;22.20;99.90
52273;DHT22;38227;50.942;4.016;2022-10-16T07:56:44;22.00;99.90
52273;DHT22;38227;50.942;4.016;2022-10-16T07:59:17;21.80;99.90
52273;DHT22;38227;50.942;4.016;2022-10-16T08:01:49;21.80;99.90
52273;DHT22;38227;50.942;4.016;2022-10-16T08:04:27;22.00;99.90
52273;DHT22;38227;50.942;4.016;2022-10-16T08:06:55;22.60;99.40
52273;DHT22;38227;50.942;4.016;2022-10-16T08:09:24;22.70;98.90
52273;DHT22;38227;50.942;4.016;2022-10-16T08:11:55;22.80;98.60
52273;DHT22;38227;50.942;4.016;2022-10-16T08:14:24;23.20;98.10
52273;DHT22;38227;50.942;4.016;2022-10-16T08:17:02;23.30;98.00
52273;DHT22;38227;50.942;4.016;2022-10-16T08:19:30;23.40;97.60
52273;DHT22;38227;50.942;4.016;2022-10-16T08:22:00;24.10;96.80
52273;DHT22;38227;50.942;4.016;2022-10-16T08:24:32;24.00;96.40
52273;DHT22;38227;50.942;4.016;2022-10-16T08:27:00;24.30;96.30
52273;DHT22;38227;50.942;4.016;2022-10-16T08:29:32;24.70;95.40
52273;DHT22;38227;50.942;4.016;2022-10-16T08:32:03;25.20;94.90
52273;DHT22;38227;50.942;4.016;2022-10-16T08:34:36;25.70;94.10
52273;DHT22;38227;50.942;4.016;2022-10-16T08:37:04;25.90;93.00
52273;DHT22;38227;50.942;4.016;2022-10-16T08:39:37;25.30;93.10
52273;DHT22;38227;50.942;4.016;2022-10-16T08:42:50;25.00;93.50
52273;DHT22;38227;50.942;4.016;2022-10-16T08:48:55;24.70;94.70
52273;DHT22;38227;50.942;4.016;2022-10-16T08:51:36;24.90;93.70
52273;DHT22;38227;50.942;4.016;2022-10-16T08:54:19;24.90;94.00
52273;DHT22;38227;50.942;4.016;2022-10-16T08:56:48;25.40;93.60
52273;DHT22;38227;50.942;4.016;2022-10-16T08:59:17;25.50;93.00
52273;DHT22;38227;50.942;4.016;2022-10-16T09:01:49;25.70;92.70
52273;DHT22;38227;50.942;4.016;2022-10-16T09:04:54;26.00;92.30
52273;DHT22;38227;50.942;4.016;2022-10-16T09:07:45;26.00;91.70
52273;DHT22;38227;50.942;4.016;2022-10-16T09:10:56;25.30;93.10
52273;DHT22;38227;50.942;4.016;2022-10-16T09:17:01;26.10;91.30
52273;DHT22;38227;50.942;4.016;2022-10-16T09:19:38;26.30;91.40
52273;DHT22;38227;50.942;4.016;2022-10-16T09:22:14;26.50;90.80
52273;DHT22;38227;50.942;4.016;2022-10-16T09:24:43;26.50;90.60
52273;DHT22;38227;50.942;4.016;2022-10-16T09:27:13;26.40;90.60
52273;DHT22;38227;50.942;4.016;2022-10-16T09:29:43;26.60;90.90
52273;DHT22;38227;50.942;4.016;2022-10-16T09:32:17;26.20;91.80
52273;DHT22;38227;50.942;4.016;2022-10-16T09:34:55;26.60;90.10
52273;DHT22;38227;50.942;4.016;2022-10-16T09:37:28;26.50;90.10
52273;DHT22;38227;50.942;4.016;2022-10-16T09:39:57;26.30;90.60
52273;DHT22;38227;50.942;4.016;2022-10-16T09:42:32;26.10;90.60
52273;DHT22;38227;50.942;4.016;2022-10-16T09:45:04;25.70;91.10
52273;DHT22;38227;50.942;4.016;2022-10-16T09:47:39;24.90;92.50
52273;DHT22;38227;50.942;4.016;2022-10-16T09:50:28;24.30;93.40
52273;DHT22;38227;50.942;4.016;2022-10-16T09:53:23;24.40;93.10
52273;DHT22;38227;50.942;4.016;2022-10-16T09:55:53;23.80;94.20
52273;DHT22;38227;50.942;4.016;2022-10-16T09:58:23;23.30;95.00
52273;DHT22;38227;50.942;4.016;2022-10-16T10:00:53;23.00;95.50
52273;DHT22;38227;50.942;4.016;2022-10-16T10:03:39;22.60;95.90
52273;DHT22;38227;50.942;4.016;2022-10-16T10:06:30;22.30;97.10
52273;DHT22;38227;50.942;4.016;2022-10-16T10:09:23;22.10;97.00
52273;DHT22;38227;50.942;4.016;2022-10-16T10:14:51;21.20;98.00
52273;DHT22;38227;50.942;4.016;2022-10-16T10:17:24;20.90;98.60
52273;DHT22;38227;50.942;4.016;2022-10-16T10:20:13;20.80;98.80
52273;DHT22;38227;50.942;4.016;2022-10-16T10:22:45;20.60;99.60
52273;DHT22;38227;50.942;4.016;2022-10-16T10:29:12;20.60;99.30
52273;DHT22;38227;50.942;4.016;2022-10-16T10:32:06;20.60;99.50
52273;DHT22;38227;50.942;4.016;2022-10-16T10:44:30;20.30;99.90
52273;DHT22;38227;50.942;4.016;2022-10-16T10:50:34;20.40;99.90
52273;DHT22;38227;50.942;4.016;2022-10-16T10:53:29;20.50;99.40
52273;DHT22;38227;50.942;4.016;2022-10-16T10:57:10;20.40;99.90
52273;DHT22;38227;50.942;4.016;2022-10-16T11:02:44;20.50;99.50
52273;DHT22;38227;50.942;4.016;2022-10-16T11:08:53;20.70;98.60
52273;DHT22;38227;50.942;4.016;2022-10-16T11:11:42;20.70;98.20
52273;DHT22;38227;50.942;4.016;2022-10-16T11:14:24;20.80;98.50
52273;DHT22;38227;50.942;4.016;2022-10-16T11:16:59;20.60;98.40
52273;DHT22;38227;50.942;4.016;2022-10-16T11:25:27;20.70;99.00
52273;DHT22;38227;50.942;4.016;2022-10-16T11:28:16;20.70;98.70
52273;DHT22;38227;50.942;4.016;2022-10-16T11:31:23;20.80;98.80
52273;DHT22;38227;50.942;4.016;2022-10-16T11:39:50;20.90;98.80
52273;DHT22;38227;50.942;4.016;2022-10-16T11:42:27;21.10;97.00
52273;DHT22;38227;50.942;4.016;2022-10-16T11:45:36;20.90;96.40
52273;DHT22;38227;50.942;4.016;2022-10-16T11:48:33;20.70;97.20
52273;DHT22;38227;50.942;4.016;2022-10-16T11:51:38;20.70;97.80
52273;DHT22;38227;50.942;4.016;2022-10-16T11:54:53;20.80;98.00
52273;DHT22;38227;50.942;4.016;2022-10-16T11:57:32;20.90;97.00
52273;DHT22;38227;50.942;4.016;2022-10-16T12:00:22;20.90;97.00
52273;DHT22;38227;50.942;4.016;2022-10-16T12:03:11;21.10;97.40
52273;DHT22;38227;50.942;4.016;2022-10-16T12:06:05;21.20;97.00
52273;DHT22;38227;50.942;4.016;2022-10-16T12:08:35;21.30;97.00
52273;DHT22;38227;50.942;4.016;2022-10-16T12:11:54;21.40;96.10
52273;DHT22;38227;50.942;4.016;2022-10-16T12:17:24;21.40;96.70
52273;DHT22;38227;50.942;4.016;2022-10-16T12:20:18;21.40;96.60
52273;DHT22;38227;50.942;4.016;2022-10-16T12:25:39;21.70;96.90
52273;DHT22;38227;50.942;4.016;2022-10-16T12:28:35;21.70;96.50
52273;DHT22;38227;50.942;4.016;2022-10-16T12:31:09;21.80;96.50
52273;DHT22;38227;50.942;4.016;2022-10-16T12:33:56;21.80;96.70
52273;DHT22;38227;50.942;4.016;2022-10-16T12:36:33;21.80;96.40
52273;DHT22;38227;50.942;4.016;2022-10-16T12:39:02;21.40;97.40
52273;DHT22;38227;50.942;4.016;2022-10-16T12:41:32;21.40;97.70
52273;DHT22;38227;50.942;4.016;2022-10-16T12:44:05;21.50;97.70
52273;DHT22;38227;50.942;4.016;2022-10-16T12:46:48;21.50;97.20
52273;DHT22;38227;50.942;4.016;2022-10-16T12:55:22;21.30;97.50
52273;DHT22;38227;50.942;4.016;2022-10-16T12:58:33;21.20;97.70
52273;DHT22;38227;50.942;4.016;2022-10-16T13:17:01;21.00;97.80
52273;DHT22;38227;50.942;4.016;2022-10-16T13:20:12;20.90;98.30
52273;DHT22;38227;50.942;4.016;2022-10-16T13:28:59;21.00;98.20
52273;DHT22;38227;50.942;4.016;2022-10-16T13:31:31;21.10;98.60
52273;DHT22;38227;50.942;4.016;2022-10-16T13:34:10;21.30;98.20
52273;DHT22;38227;50.942;4.016;2022-10-16T13:36:45;21.40;97.90
52273;DHT22;38227;50.942;4.016;2022-10-16T13:39:29;21.40;97.20
52273;DHT22;38227;50.942;4.016;2022-10-16T13:42:26;21.40;97.30
52273;DHT22;38227;50.942;4.016;2022-10-16T13:44:57;21.30;97.20
52273;DHT22;38227;50.942;4.016;2022-10-16T13:47:27;21.10;97.80
52273;DHT22;38227;50.942;4.016;2022-10-16T13:50:15;20.90;98.30
52273;DHT22;38227;50.942;4.016;2022-10-16T13:52:45;21.00;98.20
52273;DHT22;38227;50.942;4.016;2022-10-16T13:55:17;21.20;97.90
52273;DHT22;38227;50.942;4.016;2022-10-16T13:57:47;21.30;97.80
52273;DHT22;38227;50.942;4.016;2022-10-16T14:00:25;21.30;97.80
52273;DHT22;38227;50.942;4.016;2022-10-16T14:03:07;21.20;97.40
52273;DHT22;38227;50.942;4.016;2022-10-16T14:05:49;21.10;97.70
52273;DHT22;38227;50.942;4.016;2022-10-16T14:08:22;21.00;97.70
52273;DHT22;38227;50.942;4.016;2022-10-16T14:10:57;21.20;97.50
52273;DHT22;38227;50.942;4.016;2022-10-16T14:13:49;21.20;97.30
52273;DHT22;38227;50.942;4.016;2022-10-16T14:16:40;21.10;97.50
52273;DHT22;38227;50.942;4.016;2022-10-16T14:19:26;21.20;97.40
52273;DHT22;38227;50.942;4.016;2022-10-16T14:21:55;21.10;97.60
52273;DHT22;38227;50.942;4.016;2022-10-16T14:24:34;21.30;97.80
52273;DHT22;38227;50.942;4.016;2022-10-16T14:27:26;21.40;97.10
52273;DHT22;38227;50.942;4.016;2022-10-16T14:30:22;21.40;97.30
52273;DHT22;38227;50.942;4.016;2022-10-16T14:33:04;21.30;97.30
52273;DHT22;38227;50.942;4.016;2022-10-16T14:35:39;21.10;97.50
52273;DHT22;38227;50.942;4.016;2022-10-16T14:38:18;20.80;98.40
52273;DHT22;38227;50.942;4.016;2022-10-16T14:40:49;20.70;98.50
52273;DHT22;38227;50.942;4.016;2022-10-16T14:43:26;20.80;98.40
52273;DHT22;38227;50.942;4.016;2022-10-16T14:45:58;20.70;98.40
52273;DHT22;38227;50.942;4.016;2022-10-16T14:48:29;20.50;98.70
52273;DHT22;38227;50.942;4.016;2022-10-16T14:50:59;20.40;99.10
52273;DHT22;38227;50.942;4.016;2022-10-16T14:53:29;20.40;99.40
52273;DHT22;38227;50.942;4.016;2022-10-16T14:56:12;20.50;99.50
52273;DHT22;38227;50.942;4.016;2022-10-16T14:58:52;20.50;99.40
52273;DHT22;38227;50.942;4.016;2022-10-16T15:01:30;20.60;99.30
52273;DHT22;38227;50.942;4.016;2022-10-16T15:04:00;20.70;99.30
52273;DHT22;38227;50.942;4.016;2022-10-16T15:06:38;20.70;99.30
52273;DHT22;38227;50.942;4.016;2022-10-16T15:09:08;20.70;99.10
52273;DHT22;38227;50.942;4.016;2022-10-16T15:11:41;20.80;99.20
52273;DHT22;38227;50.942;4.016;2022-10-16T15:14:23;20.70;99.20
52273;DHT22;38227;50.942;4.016;2022-10-16T15:16:55;20.80;99.40
52273;DHT22;38227;50.942;4.016;2022-10-16T15:19:25;20.80;99.20
52273;DHT22;38227;50.942;4.016;2022-10-16T15:21:54;20.70;99.40
52273;DHT22;38227;50.942;4.016;2022-10-16T15:24:27;20.70;99.30
52273;DHT22;38227;50.942;4.016;2022-10-16T15:26:56;20.70;99.50
52273;DHT22;38227;50.942;4.016;2022-10-16T15:29:36;20.70;99.60
52273;DHT22;38227;50.942;4.016;2022-10-16T15:32:06;20.70;99.80
52273;DHT22;38227;50.942;4.016;2022-10-16T15:34:46;20.60;99.80
52273;DHT22;38227;50.942;4.016;2022-10-16T15:37:16;20.70;99.80
52273;DHT22;38227;50.942;4.016;2022-10-16T15:39:50;20.60;99.90
52273;DHT22;38227;50.942;4.016;2022-10-16T15:42:19;20.50;99.90
52273;DHT22;38227;50.942;4.016;2022-10-16T15:44:53;20.50;99.90
52273;DHT22;38227;50.942;4.016;2022-10-16T15:47:22;20.50;99.90
52273;DHT22;38227;50.942;4.016;2022-10-16T15:49:53;20.50;99.90
52273;DHT22;38227;50.942;4.016;2022-10-16T15:52:26;20.50;99.90
52273;DHT22;38227;50.942;4.016;2022-10-16T15:54:55;20.50;99.90
52273;DHT22;38227;50.942;4.016;2022-10-16T15:57:28;20.50;99.90
52273;DHT22;38227;50.942;4.016;2022-10-16T15:59:57;20.60;99.90
52273;DHT22;38227;50.942;4.016;2022-10-16T16:02:29;20.40;99.90
52273;DHT22;38227;50.942;4.016;2022-10-16T16:05:09;20.30;99.90
52273;DHT22;38227;50.942;4.016;2022-10-16T16:07:38;20.40;99.90
52273;DHT22;38227;50.942;4.016;2022-10-16T16:10:10;20.40;99.90
52273;DHT22;38227;50.942;4.016;2022-10-16T16:12:38;20.40;99.90
52273;DHT22;38227;50.942;4.016;2022-10-16T16:15:15;20.30;99.90
52273;DHT22;38227;50.942;4.016;2022-10-16T16:18:03;20.20;99.90
52273;DHT22;38227;50.942;4.016;2022-10-16T16:20:31;20.20;99.90
52273;DHT22;38227;50.942;4.016;2022-10-16T16:23:10;20.20;99.90
52273;DHT22;38227;50.942;4.016;2022-10-16T16:25:40;20.20;99.90
52273;DHT22;38227;50.942;4.016;2022-10-16T16:28:09;20.20;99.90
52273;DHT22;38227;50.942;4.016;2022-10-16T16:30:44;20.20;99.90
52273;DHT22;38227;50.942;4.016;2022-10-16T16:33:22;20.20;99.90
52273;DHT22;38227;50.942;4.016;2022-10-16T16:35:55;20.00;99.90
52273;DHT22;38227;50.942;4.016;2022-10-16T16:38:33;20.00;99.90
52273;DHT22;38227;50.942;4.016;2022-10-16T16:41:19;20.00;99.90
52273;DHT22;38227;50.942;4.016;2022-10-16T16:43:53;20.00;99.90
52273;DHT22;38227;50.942;4.016;2022-10-16T16:46:32;19.80;99.90
52273;DHT22;38227;50.942;4.016;2022-10-16T16:49:02;19.80;99.90
52273;DHT22;38227;50.942;4.016;2022-10-16T16:51:33;19.90;99.90
52273;DHT22;38227;50.942;4.016;2022-10-16T16:54:09;19.90;99.90
52273;DHT22;38227;50.942;4.016;2022-10-16T16:56:38;20.00;99.90
52273;DHT22;38227;50.942;4.016;2022-10-16T16:59:15;20.20;99.90
52273;DHT22;38227;50.942;4.016;2022-10-16T17:01:47;20.20;99.90
52273;DHT22;38227;50.942;4.016;2022-10-16T17:04:19;20.10;99.90
52273;DHT22;38227;50.942;4.016;2022-10-16T17:06:48;20.00;99.90
52273;DHT22;38227;50.942;4.016;2022-10-16T17:09:22;20.10;99.90
52273;DHT22;38227;50.942;4.016;2022-10-16T17:12:00;20.10;99.90
52273;DHT22;38227;50.942;4.016;2022-10-16T17:14:33;20.00;99.90
52273;DHT22;38227;50.942;4.016;2022-10-16T17:17:01;20.00;99.90
52273;DHT22;38227;50.942;4.016;2022-10-16T17:19:32;19.90;99.90
52273;DHT22;38227;50.942;4.016;2022-10-16T17:22:04;19.90;99.90
52273;DHT22;38227;50.942;4.016;2022-10-16T17:24:33;19.80;99.90
52273;DHT22;38227;50.942;4.016;2022-10-16T17:27:00;19.50;99.90
52273;DHT22;38227;50.942;4.016;2022-10-16T17:29:33;19.20;99.90
52273;DHT22;38227;50.942;4.016;2022-10-16T17:32:01;18.90;99.90
52273;DHT22;38227;50.942;4.016;2022-10-16T17:34:39;18.70;99.90
52273;DHT22;38227;50.942;4.016;2022-10-16T17:37:06;18.50;99.90
52273;DHT22;38227;50.942;4.016;2022-10-16T17:39:39;18.40;99.90
52273;DHT22;38227;50.942;4.016;2022-10-16T17:42:08;18.40;99.90
52273;DHT22;38227;50.942;4.016;2022-10-16T17:44:47;18.30;99.90
52273;DHT22;38227;50.942;4.016;2022-10-16T17:47:15;18.20;99.90
52273;DHT22;38227;50.942;4.016;2022-10-16T17:49:48;18.10;99.90
52273;DHT22;38227;50.942;4.016;2022-10-16T17:52:19;18.10;99.90